Terminal Aerodrome Forecast
Issued by NWS Blacksburg, VA

Current Version | Previous Version | Text Only | Print | Product List | Glossary Off
Versions: 1 2 3 4 5 6 7 8 9 10 11 12 13 14 15 16 17 18 19 20 21 22 23 24 25 26 27 28 29 30 31 32 33 34 35 36

000
FTUS41 KRNK 250526
TAFBLF
TAF
KBLF 250526Z 2506/2606 VRB03KT P6SM SCT050 BKN100
     FM251000 25005KT 5SM BR BKN025 BKN060
     FM251400 28007KT P6SM BKN040 OVC080
     FM251800 27008KT P6SM SCT050 BKN250
     FM260300 VRB03KT P6SM SCT100=

USA.gov is the U.S. government's official web portal to all federal, state and local government web resources and services.